createdAt,value
2023-02-28T00:01:09.950Z,21.94
2023-02-28T00:04:13.062Z,21.93
2023-02-28T00:07:16.412Z,21.93
2023-02-28T00:10:21.928Z,21.93
2023-02-28T00:13:26.812Z,21.92
2023-02-28T00:16:30.331Z,21.94
2023-02-28T00:19:33.862Z,21.77
2023-02-28T00:22:37.058Z,21.93
2023-02-28T00:25:40.328Z,21.92
2023-02-28T00:28:45.057Z,21.83
2023-02-28T00:31:48.445Z,21.91
2023-02-28T00:34:51.648Z,21.70
2023-02-28T00:37:54.852Z,21.93
2023-02-28T00:40:58.108Z,21.65
2023-02-28T00:44:02.618Z,21.91
2023-02-28T00:47:06.110Z,21.90
2023-02-28T00:50:10.523Z,21.87
2023-02-28T00:53:13.653Z,21.71
2023-02-28T00:56:16.859Z,21.89
2023-02-28T00:59:22.409Z,21.89
2023-02-28T01:02:26.012Z,21.89
2023-02-28T01:05:29.234Z,21.88
2023-02-28T01:08:32.333Z,21.89
2023-02-28T01:11:35.928Z,21.89
2023-02-28T01:14:40.524Z,21.90
2023-02-28T01:17:43.695Z,21.87
2023-02-28T01:20:47.393Z,21.89
2023-02-28T01:23:51.488Z,21.84
2023-02-28T01:26:54.556Z,21.90
2023-02-28T01:29:59.083Z,21.77
2023-02-28T01:33:02.254Z,21.88
2023-02-28T01:36:08.462Z,21.86
2023-02-28T01:39:11.540Z,21.87
2023-02-28T01:42:14.832Z,21.86
2023-02-28T01:45:25.795Z,21.85
2023-02-28T01:48:33.239Z,21.85
2023-02-28T01:51:46.643Z,21.69
2023-02-28T01:54:54.197Z,21.84
2023-02-28T01:58:00.324Z,21.84
2023-02-28T02:01:05.420Z,21.80
2023-02-28T02:04:08.531Z,21.85
2023-02-28T02:07:13.195Z,21.80
2023-02-28T02:10:18.264Z,21.86
2023-02-28T02:13:38.870Z,21.86
2023-02-28T02:16:56.497Z,21.83
2023-02-28T02:20:38.219Z,21.85
2023-02-28T02:24:16.969Z,21.41
2023-02-28T02:27:28.792Z,21.78
2023-02-28T02:30:57.205Z,21.83
2023-02-28T02:34:22.453Z,21.83
2023-02-28T02:37:33.357Z,21.71
2023-02-28T02:40:43.883Z,21.71
2023-02-28T02:43:52.209Z,21.81
2023-02-28T02:47:00.776Z,21.80
2023-02-28T02:50:09.468Z,21.81
2023-02-28T02:53:15.471Z,21.81
2023-02-28T02:56:21.836Z,21.77
2023-02-28T02:59:25.371Z,21.68
2023-02-28T03:02:35.473Z,21.83
2023-02-28T03:05:46.378Z,21.72
2023-02-28T03:08:50.755Z,21.81
2023-02-28T03:11:55.391Z,21.81
2023-02-28T03:15:10.183Z,21.78
2023-02-28T03:18:24.104Z,21.77
2023-02-28T03:21:36.255Z,21.67
2023-02-28T03:24:47.752Z,21.83
2023-02-28T03:28:03.169Z,21.82
2023-02-28T03:31:12.466Z,21.83
2023-02-28T03:34:19.813Z,21.82
2023-02-28T03:37:27.239Z,21.84
2023-02-28T03:40:34.545Z,21.75
2023-02-28T03:43:44.057Z,21.84
2023-02-28T03:46:51.694Z,21.75
2023-02-28T03:49:58.172Z,21.83
2023-02-28T03:53:06.225Z,21.83
2023-02-28T03:56:15.300Z,21.81
2023-02-28T03:59:23.681Z,21.70
2023-02-28T04:02:27.099Z,21.81
2023-02-28T04:05:31.732Z,21.69
2023-02-28T04:08:36.246Z,21.78
2023-02-28T04:11:40.970Z,21.54
2023-02-28T04:14:44.098Z,21.18
2023-02-28T04:17:47.236Z,21.10
2023-02-28T04:20:50.303Z,21.40
2023-02-28T04:23:55.037Z,21.30
2023-02-28T04:26:59.925Z,21.26
2023-02-28T04:30:03.043Z,21.21
2023-02-28T04:33:06.178Z,21.23
2023-02-28T04:36:11.113Z,21.29
2023-02-28T04:39:15.954Z,21.40
2023-02-28T04:42:19.053Z,21.40
2023-02-28T04:45:22.111Z,21.41
2023-02-28T04:48:25.933Z,21.38
2023-02-28T04:51:29.368Z,21.33
2023-02-28T04:54:33.988Z,21.31
2023-02-28T04:57:37.216Z,21.30
2023-02-28T05:00:40.470Z,21.32
2023-02-28T05:03:44.017Z,21.47
2023-02-28T05:06:47.360Z,21.59
2023-02-28T05:09:51.890Z,21.67
2023-02-28T05:12:55.012Z,21.80
2023-02-28T05:15:58.330Z,21.87
2023-02-28T05:19:01.781Z,21.86
2023-02-28T05:22:04.870Z,21.75
2023-02-28T05:25:13.672Z,21.94
2023-02-28T05:28:16.812Z,21.97
2023-02-28T05:31:20.046Z,22.02
2023-02-28T05:34:23.137Z,21.93
2023-02-28T05:37:26.200Z,22.13
2023-02-28T05:40:30.735Z,22.16
2023-02-28T05:43:33.880Z,22.17
2023-02-28T05:46:37.083Z,22.17
2023-02-28T05:49:40.244Z,22.19
2023-02-28T05:52:43.276Z,22.18
2023-02-28T05:55:47.776Z,22.14
2023-02-28T05:58:50.895Z,22.15
2023-02-28T06:01:54.363Z,22.10
2023-02-28T06:04:57.524Z,22.08
2023-02-28T06:08:00.898Z,22.04
2023-02-28T06:11:07.844Z,22.02
2023-02-28T06:14:16.973Z,21.99
2023-02-28T06:17:20.069Z,21.94
2023-02-28T06:20:23.158Z,21.94
2023-02-28T06:23:26.392Z,21.91
2023-02-28T06:26:30.963Z,21.89
2023-02-28T06:29:34.669Z,21.87
2023-02-28T06:32:37.971Z,21.84
2023-02-28T06:35:41.099Z,21.85
2023-02-28T06:38:44.947Z,21.83
2023-02-28T06:41:55.286Z,21.81
2023-02-28T06:44:59.053Z,21.72
2023-02-28T06:48:02.363Z,21.79
2023-02-28T06:51:07.937Z,21.76
2023-02-28T06:54:11.206Z,21.76
2023-02-28T06:57:15.722Z,21.74
2023-02-28T07:00:19.335Z,21.73
2023-02-28T07:03:24.224Z,21.73
2023-02-28T07:06:27.354Z,21.72
2023-02-28T07:09:31.222Z,21.72
2023-02-28T07:12:35.781Z,21.75
2023-02-28T07:15:42.344Z,21.83
2023-02-28T07:18:46.863Z,21.85
2023-02-28T07:21:50.193Z,21.86
2023-02-28T07:24:53.295Z,21.88
2023-02-28T07:28:00.114Z,21.91
2023-02-28T07:31:07.167Z,21.94
2023-02-28T07:34:10.265Z,21.94
2023-02-28T07:37:13.492Z,21.94
2023-02-28T07:40:19.068Z,21.87
2023-02-28T07:43:23.529Z,21.88
2023-02-28T07:46:28.419Z,21.85
2023-02-28T07:49:33.396Z,21.84
2023-02-28T07:52:36.900Z,21.76
2023-02-28T07:55:39.991Z,21.78
2023-02-28T07:58:44.507Z,21.68
2023-02-28T08:01:47.660Z,21.73
2023-02-28T08:04:51.567Z,21.72
2023-02-28T08:07:54.821Z,21.72
2023-02-28T08:10:57.971Z,21.68
2023-02-28T08:14:02.534Z,21.70
2023-02-28T08:17:05.712Z,21.71
2023-02-28T08:20:11.441Z,21.72
2023-02-28T08:23:14.609Z,21.71
2023-02-28T08:26:18.164Z,21.72
2023-02-28T08:29:22.743Z,21.75
2023-02-28T08:32:30.426Z,21.76
2023-02-28T08:35:33.851Z,21.77
2023-02-28T08:38:37.153Z,21.78
2023-02-28T08:41:40.332Z,21.77
2023-02-28T08:44:44.843Z,21.79
2023-02-28T08:47:48.041Z,21.78
2023-02-28T08:51:06.792Z,21.79
2023-02-28T08:54:13.502Z,21.74
2023-02-28T08:57:16.630Z,21.74
2023-02-28T09:00:22.669Z,21.78
2023-02-28T09:03:27.970Z,21.78
2023-02-28T09:06:31.572Z,21.74
2023-02-28T09:09:34.898Z,21.77
2023-02-28T09:12:37.992Z,21.77
2023-02-28T09:15:42.644Z,21.76
2023-02-28T09:18:46.553Z,21.76
2023-02-28T09:21:49.648Z,21.76
2023-02-28T09:24:52.777Z,21.75
2023-02-28T09:27:55.839Z,21.74
2023-02-28T09:31:00.781Z,21.73
2023-02-28T09:34:03.956Z,21.74
2023-02-28T09:37:07.247Z,21.75
2023-02-28T09:40:13.177Z,21.75
2023-02-28T09:43:19.971Z,21.76
2023-02-28T09:46:32.800Z,21.75
2023-02-28T09:49:42.196Z,21.78
2023-02-28T09:52:47.822Z,21.81
2023-02-28T09:55:54.154Z,21.83
2023-02-28T09:59:01.091Z,21.73
2023-02-28T10:02:20.071Z,21.83
2023-02-28T10:05:27.581Z,21.83
2023-02-28T10:08:34.701Z,21.83
2023-02-28T10:11:42.187Z,21.84
2023-02-28T10:14:49.091Z,21.76
2023-02-28T10:21:27.295Z,21.84
2023-02-28T10:24:50.358Z,21.84
2023-02-28T10:27:56.612Z,21.84
2023-02-28T10:31:00.729Z,21.86
2023-02-28T10:34:07.284Z,21.88
2023-02-28T10:37:11.812Z,21.94
2023-02-28T10:40:31.206Z,21.97
2023-02-28T10:43:34.521Z,21.80
2023-02-28T10:46:38.369Z,22.15
2023-02-28T10:49:50.391Z,22.21
2023-02-28T10:52:53.565Z,22.24
2023-02-28T10:56:01.930Z,22.21
2023-02-28T10:59:25.720Z,22.23
2023-02-28T11:02:35.337Z,22.29
2023-02-28T11:05:40.191Z,22.26
2023-02-28T11:08:53.192Z,22.27
2023-02-28T11:11:56.440Z,22.28
2023-02-28T11:15:02.882Z,22.29
2023-02-28T11:18:25.047Z,22.27
2023-02-28T11:21:34.647Z,22.20
2023-02-28T11:24:43.943Z,22.17
2023-02-28T11:27:50.711Z,22.15
2023-02-28T11:31:04.539Z,22.13
2023-02-28T11:34:26.275Z,22.10
2023-02-28T11:37:31.576Z,22.08
2023-02-28T11:40:45.752Z,22.07
2023-02-28T11:44:01.960Z,22.03
2023-02-28T11:47:14.164Z,22.04
2023-02-28T11:50:33.757Z,22.02
2023-02-28T11:54:07.232Z,21.97
2023-02-28T11:57:24.529Z,21.98
2023-02-28T12:00:41.180Z,21.97
2023-02-28T12:04:00.593Z,21.95
2023-02-28T12:07:12.157Z,21.93
2023-02-28T12:10:24.294Z,21.95
2023-02-28T12:13:33.795Z,21.94
2023-02-28T12:16:55.406Z,21.87
2023-02-28T12:20:10.313Z,21.92
2023-02-28T12:23:30.303Z,21.94
2023-02-28T12:26:41.758Z,21.93
2023-02-28T12:29:52.117Z,21.92
2023-02-28T12:32:59.273Z,21.92
2023-02-28T12:36:07.711Z,21.83
2023-02-28T12:39:17.097Z,21.74
2023-02-28T12:42:29.539Z,21.91
2023-02-28T12:45:43.240Z,21.89
2023-02-28T12:48:50.417Z,21.86
2023-02-28T12:51:55.131Z,21.89
2023-02-28T12:55:05.003Z,21.89
2023-02-28T12:58:19.820Z,21.88
2023-02-28T13:01:49.882Z,21.87
2023-02-28T13:05:19.220Z,21.87
2023-02-28T13:09:10.081Z,21.88
2023-02-28T13:12:17.713Z,21.87
2023-02-28T13:15:25.838Z,21.87
2023-02-28T13:18:37.398Z,21.87
2023-02-28T13:21:48.892Z,21.74
2023-02-28T13:24:54.115Z,21.85
2023-02-28T13:28:02.034Z,21.86
2023-02-28T13:31:08.633Z,21.88
2023-02-28T13:34:18.694Z,21.87
2023-02-28T13:37:45.058Z,21.86
2023-02-28T13:40:50.953Z,21.86
2023-02-28T13:44:14.412Z,21.69
2023-02-28T13:47:31.977Z,21.82
2023-02-28T13:50:39.005Z,21.81
2023-02-28T13:53:58.050Z,21.80
2023-02-28T13:57:24.349Z,21.78
2023-02-28T14:00:43.532Z,21.76
2023-02-28T14:04:05.567Z,21.79
2023-02-28T14:07:10.455Z,21.70
2023-02-28T14:10:26.282Z,21.77
2023-02-28T14:13:48.006Z,21.76
2023-02-28T14:16:52.190Z,21.76
2023-02-28T14:19:59.114Z,21.74
2023-02-28T14:23:10.101Z,21.70
2023-02-28T14:26:24.297Z,21.74
2023-02-28T14:29:45.165Z,21.71
2023-02-28T14:32:55.902Z,21.74
2023-02-28T14:36:16.889Z,21.73
2023-02-28T14:39:24.379Z,21.73
2023-02-28T14:42:34.252Z,21.72
2023-02-28T14:45:38.745Z,21.71
2023-02-28T14:48:42.176Z,21.72
2023-02-28T14:51:57.109Z,21.64
2023-02-28T14:55:05.319Z,21.70
2023-02-28T14:58:22.718Z,21.55
2023-02-28T15:01:27.780Z,21.69
2023-02-28T15:04:33.094Z,21.69
2023-02-28T15:07:37.887Z,21.69
2023-02-28T15:10:44.497Z,21.67
2023-02-28T15:13:50.431Z,21.68
2023-02-28T15:16:58.781Z,21.68
2023-02-28T15:20:02.709Z,21.65
2023-02-28T15:23:07.432Z,21.65
2023-02-28T15:26:15.374Z,21.67
2023-02-28T15:29:22.482Z,21.54
2023-02-28T15:32:32.150Z,21.57
2023-02-28T15:35:35.774Z,21.62
2023-02-28T15:38:40.278Z,21.64
2023-02-28T15:41:43.530Z,21.66
2023-02-28T15:44:47.411Z,21.58
2023-02-28T15:47:52.707Z,21.63
2023-02-28T15:50:58.385Z,21.63
2023-02-28T15:54:05.273Z,21.62
2023-02-28T15:57:16.053Z,21.46
2023-02-28T16:00:23.494Z,21.62
2023-02-28T16:03:28.673Z,21.59
2023-02-28T16:06:36.595Z,21.63
2023-02-28T16:09:43.544Z,21.52
2023-02-28T16:12:46.808Z,21.55
2023-02-28T16:15:52.469Z,21.59
2023-02-28T16:18:56.123Z,21.37
2023-02-28T16:21:59.532Z,21.59
2023-02-28T16:25:05.343Z,21.57
2023-02-28T16:28:14.791Z,21.45
2023-02-28T16:31:19.005Z,21.61
2023-02-28T16:34:22.410Z,21.51
2023-02-28T16:37:25.509Z,21.67
2023-02-28T16:40:30.783Z,21.71
2023-02-28T16:43:34.191Z,21.70
2023-02-28T16:46:38.689Z,21.70
2023-02-28T16:49:44.198Z,21.65
2023-02-28T16:52:47.558Z,21.68
2023-02-28T16:55:52.987Z,21.61
2023-02-28T16:59:00.306Z,21.15
2023-02-28T17:02:04.148Z,21.10
2023-02-28T17:05:08.629Z,21.04
2023-02-28T17:08:12.784Z,21.06
2023-02-28T17:11:17.521Z,21.07
2023-02-28T17:14:20.657Z,21.18
2023-02-28T17:17:24.260Z,21.21
2023-02-28T17:20:27.642Z,21.18
2023-02-28T17:23:30.849Z,21.21
2023-02-28T17:26:35.735Z,21.15
2023-02-28T17:29:38.857Z,21.17
2023-02-28T17:32:42.154Z,21.10
2023-02-28T17:35:45.374Z,21.17
2023-02-28T17:38:48.521Z,21.20
2023-02-28T17:41:53.610Z,21.12
2023-02-28T17:44:56.748Z,21.14
2023-02-28T17:47:59.902Z,21.26
2023-02-28T17:51:02.960Z,21.46
2023-02-28T17:54:06.261Z,21.44
2023-02-28T17:57:16.680Z,21.48
2023-02-28T18:00:20.688Z,21.59
2023-02-28T18:03:25.351Z,21.49
2023-02-28T18:06:33.102Z,21.64
2023-02-28T18:09:36.226Z,21.69
2023-02-28T18:12:40.755Z,21.72
2023-02-28T18:15:43.914Z,21.71
2023-02-28T18:18:47.746Z,21.77
2023-02-28T18:21:53.999Z,21.71
2023-02-28T18:24:57.236Z,21.79
2023-02-28T18:28:02.287Z,21.82
2023-02-28T18:31:09.026Z,21.83
2023-02-28T18:34:12.326Z,21.86
2023-02-28T18:37:16.227Z,21.85
2023-02-28T18:40:19.745Z,21.80
2023-02-28T18:43:24.656Z,21.92
2023-02-28T18:46:27.923Z,22.05
2023-02-28T18:49:34.151Z,22.08
2023-02-28T18:52:37.306Z,22.18
2023-02-28T18:55:40.467Z,22.13
2023-02-28T18:58:45.055Z,22.06
2023-02-28T19:01:48.241Z,22.07
2023-02-28T19:04:52.052Z,22.08
2023-02-28T19:07:55.148Z,22.15
2023-02-28T19:10:58.266Z,22.12
2023-02-28T19:14:03.070Z,22.18
2023-02-28T19:17:06.624Z,22.16
2023-02-28T19:20:11.323Z,22.14
2023-02-28T19:23:15.431Z,22.08
2023-02-28T19:26:21.066Z,21.54
2023-02-28T19:29:25.662Z,22.01
2023-02-28T19:32:29.062Z,21.97
2023-02-28T19:35:32.331Z,21.97
2023-02-28T19:38:35.510Z,21.87
2023-02-28T19:41:38.586Z,21.92
2023-02-28T19:44:43.345Z,21.88
2023-02-28T19:47:46.427Z,21.89
2023-02-28T19:50:49.583Z,21.80
2023-02-28T19:53:52.751Z,21.88
2023-02-28T19:56:57.766Z,21.64
2023-02-28T20:00:02.291Z,21.85
2023-02-28T20:03:05.544Z,21.84
2023-02-28T20:06:10.848Z,21.83
2023-02-28T20:09:13.977Z,21.80
2023-02-28T20:12:25.078Z,21.80
2023-02-28T20:15:30.173Z,21.82
2023-02-28T20:18:33.702Z,21.82
2023-02-28T20:21:37.177Z,21.83
2023-02-28T20:24:40.282Z,21.83
2023-02-28T20:27:43.359Z,21.80
2023-02-28T20:30:50.033Z,21.81
2023-02-28T20:33:53.989Z,21.82
2023-02-28T20:36:58.900Z,21.80
2023-02-28T20:40:04.488Z,21.79
2023-02-28T20:43:08.402Z,21.52
2023-02-28T20:46:13.866Z,21.78
2023-02-28T20:49:17.123Z,21.78
2023-02-28T20:52:20.283Z,21.78
2023-02-28T20:55:23.445Z,21.79
2023-02-28T20:58:28.747Z,21.83
2023-02-28T21:01:33.796Z,21.83
2023-02-28T21:04:36.949Z,21.82
2023-02-28T21:07:40.084Z,21.83
2023-02-28T21:10:43.252Z,21.77
2023-02-28T21:13:47.598Z,21.75
2023-02-28T21:16:52.053Z,21.76
2023-02-28T21:19:55.307Z,21.74
2023-02-28T21:22:58.478Z,21.71
2023-02-28T21:26:05.592Z,21.68
2023-02-28T21:29:09.135Z,21.69
2023-02-28T21:32:14.703Z,21.67
2023-02-28T21:35:17.970Z,21.49
2023-02-28T21:38:22.422Z,21.65
2023-02-28T21:41:26.729Z,21.63
2023-02-28T21:44:30.061Z,21.62
2023-02-28T21:47:34.775Z,21.60
2023-02-28T21:50:37.942Z,21.59
2023-02-28T21:53:42.841Z,21.04
2023-02-28T21:56:45.889Z,21.58
2023-02-28T21:59:48.996Z,21.53
2023-02-28T22:02:53.495Z,21.57
2023-02-28T22:05:56.696Z,21.57
2023-02-28T22:09:06.035Z,21.44
2023-02-28T22:12:09.365Z,21.57
2023-02-28T22:15:13.488Z,21.26
2023-02-28T22:18:18.093Z,21.58
2023-02-28T22:21:22.685Z,21.59
2023-02-28T22:24:25.907Z,21.58
2023-02-28T22:27:29.070Z,21.57
2023-02-28T22:30:32.202Z,21.57
2023-02-28T22:33:36.809Z,21.57
2023-02-28T22:36:42.062Z,21.56
2023-02-28T22:39:45.824Z,21.50
2023-02-28T22:42:48.985Z,21.54
2023-02-28T22:45:52.151Z,21.55
2023-02-28T22:48:56.747Z,21.48
2023-02-28T22:51:59.851Z,21.52
2023-02-28T22:55:02.971Z,21.52
2023-02-28T22:58:06.248Z,21.51
2023-02-28T23:01:11.250Z,21.45
2023-02-28T23:04:15.929Z,21.42
2023-02-28T23:07:19.047Z,21.48
2023-02-28T23:10:22.374Z,21.46
2023-02-28T23:13:25.556Z,21.46
2023-02-28T23:16:30.742Z,21.41
2023-02-28T23:19:35.491Z,21.42
2023-02-28T23:22:38.579Z,21.42
2023-02-28T23:25:42.477Z,21.42
2023-02-28T23:28:45.952Z,21.39
2023-02-28T23:31:50.161Z,21.40
2023-02-28T23:34:55.364Z,21.41
2023-02-28T23:37:59.369Z,21.39
2023-02-28T23:41:02.484Z,21.35
2023-02-28T23:44:05.630Z,21.40
2023-02-28T23:47:08.690Z,21.39
2023-02-28T23:50:13.659Z,21.39
2023-02-28T23:53:16.815Z,21.38
2023-02-28T23:56:22.880Z,21.30
2023-02-28T23:59:26.413Z,21.26
